createdAt,value
2022-09-17T00:01:17.250Z,1.23
2022-09-17T00:03:45.255Z,0.93
2022-09-17T00:06:12.551Z,0.60
2022-09-17T00:08:39.837Z,1.95
2022-09-17T00:11:07.949Z,0.57
2022-09-17T00:13:34.472Z,1.17
2022-09-17T00:16:00.875Z,1.48
2022-09-17T00:18:27.423Z,1.10
2022-09-17T00:20:54.139Z,0.95
2022-09-17T00:23:20.414Z,1.60
2022-09-17T00:25:46.717Z,1.15
2022-09-17T00:28:14.122Z,0.50
2022-09-17T00:30:44.098Z,0.38
2022-09-17T00:33:14.211Z,2.20
2022-09-17T00:35:40.495Z,0.40
2022-09-17T00:38:06.985Z,1.17
2022-09-17T00:40:33.471Z,1.15
2022-09-17T00:42:59.801Z,4.38
2022-09-17T00:45:26.318Z,2.35
2022-09-17T00:47:58.151Z,0.20
2022-09-17T00:50:29.751Z,0.60
2022-09-17T00:53:01.389Z,1.00
2022-09-17T00:55:29.034Z,2.08
2022-09-17T00:57:57.350Z,2.78
2022-09-17T01:00:23.607Z,3.38
2022-09-17T01:02:50.039Z,1.42
2022-09-17T01:05:16.470Z,2.17
2022-09-17T01:07:42.711Z,0.82
2022-09-17T01:10:23.999Z,2.40
2022-09-17T01:13:09.113Z,0.22
2022-09-17T01:15:41.397Z,0.30
2022-09-17T01:18:21.746Z,2.60
2022-09-17T01:20:57.157Z,0.20
2022-09-17T01:23:41.942Z,2.90
2022-09-17T01:26:26.990Z,2.53
2022-09-17T01:29:07.015Z,0.77
2022-09-17T01:31:44.954Z,0.20
2022-09-17T01:34:17.426Z,0.30
2022-09-17T01:36:46.438Z,1.20
2022-09-17T01:39:18.867Z,3.20
2022-09-17T01:41:45.545Z,0.22
2022-09-17T01:44:30.675Z,4.60
2022-09-17T01:47:00.263Z,3.08
2022-09-17T01:49:26.878Z,0.13
2022-09-17T01:51:54.753Z,0.45
2022-09-17T01:54:27.806Z,1.00
2022-09-17T01:56:57.137Z,0.55
2022-09-17T01:59:32.682Z,1.67
2022-09-17T02:02:06.860Z,1.85
2022-09-17T02:04:36.167Z,5.63
2022-09-17T02:07:04.890Z,0.83
2022-09-17T02:09:40.012Z,1.48
2022-09-17T02:12:09.862Z,4.07
2022-09-17T02:14:39.235Z,6.25
2022-09-17T02:17:12.453Z,0.90
2022-09-17T02:19:39.977Z,6.03
2022-09-17T02:22:14.978Z,8.63
2022-09-17T02:24:46.049Z,7.30
2022-09-17T02:27:35.041Z,6.13
2022-09-17T02:30:01.292Z,2.17
2022-09-17T02:32:27.671Z,5.07
2022-09-17T02:34:53.941Z,3.53
2022-09-17T02:37:20.287Z,9.85
2022-09-17T02:39:46.695Z,2.15
2022-09-17T02:42:22.437Z,10.50
2022-09-17T02:44:57.903Z,2.58
2022-09-17T02:47:35.697Z,5.72
2022-09-17T02:50:10.955Z,6.90
2022-09-17T02:52:46.531Z,2.80
2022-09-17T02:55:33.073Z,4.20
2022-09-17T02:58:05.679Z,7.35
2022-09-17T03:00:32.205Z,9.45
2022-09-17T03:03:04.213Z,9.02
2022-09-17T03:05:30.683Z,1.98
2022-09-17T03:07:57.163Z,7.00
2022-09-17T03:10:23.582Z,14.38
2022-09-17T03:12:49.958Z,7.88
2022-09-17T03:15:16.268Z,6.95
2022-09-17T03:17:42.536Z,5.47
2022-09-17T03:20:09.001Z,12.25
2022-09-17T03:22:36.414Z,8.02
2022-09-17T03:25:02.770Z,13.45
2022-09-17T03:27:29.042Z,6.30
2022-09-17T03:29:55.275Z,5.88
2022-09-17T03:32:21.545Z,6.78
2022-09-17T03:34:47.826Z,4.20
2022-09-17T03:37:14.117Z,7.32
2022-09-17T03:39:40.401Z,14.70
2022-09-17T03:42:06.645Z,4.15
2022-09-17T03:44:32.910Z,16.58
2022-09-17T03:46:59.167Z,8.98
2022-09-17T03:49:25.599Z,9.80
2022-09-17T03:51:51.865Z,4.43
2022-09-17T03:54:18.129Z,7.80
2022-09-17T03:56:44.381Z,12.52
2022-09-17T03:59:10.861Z,9.18
2022-09-17T04:01:37.232Z,5.80
2022-09-17T04:04:03.907Z,5.03
2022-09-17T04:06:30.215Z,12.85
2022-09-17T04:08:56.907Z,10.13
2022-09-17T04:11:23.254Z,5.30
2022-09-17T04:13:49.686Z,9.52
2022-09-17T04:16:16.099Z,4.50
2022-09-17T04:18:42.418Z,6.57
2022-09-17T04:21:08.665Z,11.68
2022-09-17T04:23:34.924Z,11.48
2022-09-17T04:26:01.266Z,4.00
2022-09-17T04:28:27.603Z,10.65
2022-09-17T04:30:53.872Z,7.20
2022-09-17T04:33:20.155Z,8.63
2022-09-17T04:35:46.510Z,7.38
2022-09-17T04:38:18.240Z,8.30
2022-09-17T04:40:46.333Z,5.35
2022-09-17T04:43:12.728Z,7.75
2022-09-17T04:45:39.139Z,7.20
2022-09-17T04:48:05.662Z,8.32
2022-09-17T04:50:32.063Z,20.15
2022-09-17T04:52:58.341Z,20.95
2022-09-17T04:55:24.867Z,6.53
2022-09-17T04:57:52.433Z,5.15
2022-09-17T05:00:19.533Z,8.48
2022-09-17T05:02:48.371Z,14.85
2022-09-17T05:05:15.284Z,18.88
2022-09-17T05:07:41.617Z,15.07
2022-09-17T05:10:08.779Z,12.80
2022-09-17T05:12:35.058Z,14.25
2022-09-17T05:15:02.051Z,18.67
2022-09-17T05:17:28.419Z,18.13
2022-09-17T05:19:54.671Z,26.70
2022-09-17T05:22:21.713Z,18.95
2022-09-17T05:24:48.199Z,24.73
2022-09-17T05:27:14.461Z,19.52
2022-09-17T05:29:40.867Z,16.17
2022-09-17T05:32:07.499Z,9.48
2022-09-17T05:34:33.970Z,9.63
2022-09-17T05:37:00.229Z,15.48
2022-09-17T05:39:26.480Z,20.45
2022-09-17T05:41:53.271Z,15.00
2022-09-17T05:44:19.753Z,21.83
2022-09-17T05:46:46.692Z,13.65
2022-09-17T05:49:14.228Z,22.23
2022-09-17T05:51:41.214Z,8.65
2022-09-17T05:54:07.756Z,12.60
2022-09-17T05:56:34.263Z,17.33
2022-09-17T05:59:00.563Z,19.70
2022-09-17T06:01:27.388Z,21.33
2022-09-17T06:03:53.823Z,15.07
2022-09-17T06:06:20.090Z,19.02
2022-09-17T06:08:46.366Z,11.85
2022-09-17T06:11:12.632Z,27.27
2022-09-17T06:13:38.891Z,14.05
2022-09-17T06:16:05.304Z,17.48
2022-09-17T06:18:31.725Z,20.05
2022-09-17T06:20:59.462Z,13.95
2022-09-17T06:23:26.001Z,15.35
2022-09-17T06:25:56.202Z,22.65
2022-09-17T06:28:22.511Z,14.77
2022-09-17T06:30:48.855Z,17.15
2022-09-17T06:33:15.276Z,13.82
2022-09-17T06:35:42.145Z,13.25
2022-09-17T06:38:08.418Z,12.70
2022-09-17T06:40:34.747Z,16.80
2022-09-17T06:43:01.077Z,10.75
2022-09-17T06:45:27.425Z,11.95
2022-09-17T06:47:53.683Z,18.30
2022-09-17T06:50:20.156Z,17.35
2022-09-17T06:52:50.218Z,9.48
2022-09-17T06:55:16.588Z,20.17
2022-09-17T06:57:43.060Z,13.30
2022-09-17T07:00:10.067Z,19.73
2022-09-17T07:02:36.338Z,19.67
2022-09-17T07:05:02.664Z,14.95
2022-09-17T07:07:29.072Z,15.25
2022-09-17T07:09:55.319Z,17.23
2022-09-17T07:12:21.727Z,20.65
2022-09-17T07:14:48.047Z,7.32
2022-09-17T07:17:14.732Z,15.68
2022-09-17T07:19:40.969Z,16.13
2022-09-17T07:22:08.132Z,15.95
2022-09-17T07:24:34.552Z,16.33
2022-09-17T07:27:01.614Z,11.32
2022-09-17T07:29:27.878Z,22.35
2022-09-17T07:31:54.659Z,22.05
2022-09-17T07:34:21.170Z,11.23
2022-09-17T07:36:47.406Z,13.95
2022-09-17T07:39:13.685Z,9.13
2022-09-17T07:41:40.323Z,20.80
2022-09-17T07:44:09.923Z,14.82
2022-09-17T07:46:36.369Z,11.00
2022-09-17T07:49:02.716Z,10.80
2022-09-17T07:51:29.016Z,10.13
2022-09-17T07:53:56.229Z,13.27
2022-09-17T07:56:22.685Z,9.52
2022-09-17T07:58:49.190Z,27.75
2022-09-17T08:01:16.703Z,8.32
2022-09-17T08:03:43.803Z,18.92
2022-09-17T08:06:14.573Z,13.80
2022-09-17T08:08:41.477Z,10.40
2022-09-17T08:11:11.555Z,10.32
2022-09-17T08:13:37.922Z,8.20
2022-09-17T08:16:05.795Z,14.35
2022-09-17T08:18:32.730Z,15.85
2022-09-17T08:20:59.570Z,18.65
2022-09-17T08:23:26.372Z,21.08
2022-09-17T08:25:53.569Z,8.18
2022-09-17T08:28:19.827Z,15.45
2022-09-17T08:30:48.175Z,13.48
2022-09-17T08:33:29.009Z,7.60
2022-09-17T08:35:55.464Z,11.93
2022-09-17T08:38:22.131Z,13.73
2022-09-17T08:41:14.958Z,17.13
2022-09-17T08:43:50.085Z,15.98
2022-09-17T08:46:16.373Z,15.23
2022-09-17T08:48:44.973Z,16.35
2022-09-17T08:51:21.722Z,7.47
2022-09-17T08:54:02.698Z,12.00
2022-09-17T08:56:31.602Z,13.68
2022-09-17T08:59:08.919Z,10.32
2022-09-17T09:01:35.214Z,12.32
2022-09-17T09:04:03.059Z,10.18
2022-09-17T09:06:37.742Z,17.13
2022-09-17T09:09:12.068Z,11.23
2022-09-17T09:11:40.210Z,6.40
2022-09-17T09:14:21.353Z,6.38
2022-09-17T09:16:48.525Z,11.02
2022-09-17T09:19:14.794Z,14.63
2022-09-17T09:21:52.418Z,7.13
2022-09-17T09:24:23.817Z,14.52
2022-09-17T09:26:59.195Z,8.77
2022-09-17T09:29:31.815Z,13.63
2022-09-17T09:32:16.176Z,10.90
2022-09-17T09:34:43.697Z,14.45
2022-09-17T09:37:30.244Z,12.65
2022-09-17T09:39:58.741Z,15.60
2022-09-17T09:42:32.497Z,19.48
2022-09-17T09:45:04.945Z,12.05
2022-09-17T09:47:41.895Z,11.05
2022-09-17T09:50:21.766Z,17.58
2022-09-17T09:52:48.483Z,9.60
2022-09-17T09:55:26.391Z,11.30
2022-09-17T09:57:55.617Z,7.18
2022-09-17T10:00:26.910Z,13.73
2022-09-17T10:03:11.867Z,8.77
2022-09-17T10:05:38.214Z,15.65
2022-09-17T10:08:12.057Z,12.05
2022-09-17T10:10:53.587Z,9.35
2022-09-17T10:13:20.238Z,9.02
2022-09-17T10:15:46.569Z,13.38
2022-09-17T10:18:20.050Z,7.97
2022-09-17T10:21:12.562Z,4.78
2022-09-17T10:23:43.272Z,15.48
2022-09-17T10:26:20.115Z,14.88
2022-09-17T10:29:09.607Z,10.30
2022-09-17T10:31:52.486Z,16.85
2022-09-17T10:34:28.875Z,14.35
2022-09-17T10:36:56.627Z,10.93
2022-09-17T10:39:37.917Z,14.18
2022-09-17T10:42:05.379Z,10.57
2022-09-17T10:44:37.847Z,7.03
2022-09-17T10:47:06.928Z,8.65
2022-09-17T10:49:38.752Z,12.20
2022-09-17T10:52:13.305Z,6.32
2022-09-17T10:54:48.527Z,13.77
2022-09-17T10:57:18.599Z,5.80
2022-09-17T11:02:20.796Z,6.25
2022-09-17T11:04:55.424Z,10.65
2022-09-17T11:07:32.119Z,11.32
2022-09-17T11:10:21.375Z,9.68
2022-09-17T11:12:47.582Z,8.05
2022-09-17T11:15:29.003Z,4.72
2022-09-17T11:18:01.321Z,13.57
2022-09-17T11:20:46.714Z,6.95
2022-09-17T11:23:31.843Z,10.27
2022-09-17T11:26:24.354Z,8.40
2022-09-17T11:29:08.578Z,10.13
2022-09-17T11:31:58.234Z,4.80
2022-09-17T11:34:36.521Z,8.68
2022-09-17T11:37:08.610Z,7.90
2022-09-17T11:39:46.885Z,8.57
2022-09-17T11:42:17.021Z,7.95
2022-09-17T11:44:49.387Z,7.40
2022-09-17T11:47:18.647Z,5.30
2022-09-17T11:49:50.918Z,5.63
2022-09-17T11:52:17.162Z,3.33
2022-09-17T11:54:55.516Z,8.05
2022-09-17T12:00:18.546Z,3.42
2022-09-17T12:02:57.579Z,7.43
2022-09-17T12:05:23.934Z,10.57
2022-09-17T12:07:54.723Z,12.52
2022-09-17T12:10:35.281Z,2.00
2022-09-17T12:13:07.401Z,5.97
2022-09-17T12:15:35.303Z,3.95
2022-09-17T12:18:31.273Z,1.02
2022-09-17T12:20:55.032Z,4.50
2022-09-17T12:23:31.345Z,3.70
2022-09-17T12:26:12.658Z,1.75
2022-09-17T12:28:59.297Z,3.10
2022-09-17T12:31:36.705Z,4.30
2022-09-17T12:34:16.163Z,5.65
2022-09-17T12:36:48.525Z,3.85
2022-09-17T12:39:26.087Z,4.60
2022-09-17T12:42:10.515Z,3.70
2022-09-17T12:44:48.912Z,3.33
2022-09-17T12:47:38.450Z,6.35
2022-09-17T12:50:13.632Z,5.15
2022-09-17T12:53:07.361Z,4.10
2022-09-17T12:55:33.602Z,4.35
2022-09-17T12:57:59.848Z,3.13
2022-09-17T13:00:27.021Z,7.18
2022-09-17T13:03:01.024Z,5.28
2022-09-17T13:05:27.255Z,5.13
2022-09-17T13:08:02.544Z,1.08
2022-09-17T13:10:47.803Z,7.03
2022-09-17T13:13:14.038Z,3.85
2022-09-17T13:15:59.065Z,4.88
2022-09-17T13:18:41.702Z,2.75
2022-09-17T13:21:17.976Z,3.83
2022-09-17T13:23:48.971Z,2.03
2022-09-17T13:26:19.025Z,0.50
2022-09-17T13:31:18.954Z,3.33
2022-09-17T13:33:58.818Z,6.13
2022-09-17T13:36:46.042Z,4.18
2022-09-17T13:39:32.741Z,5.50
2022-09-17T13:42:01.625Z,1.80
2022-09-17T13:44:27.954Z,0.52
2022-09-17T13:47:08.117Z,1.88
2022-09-17T13:52:00.662Z,5.53
2022-09-17T13:54:36.533Z,2.25
2022-09-17T13:57:07.816Z,4.68
2022-09-17T13:59:36.378Z,6.85
2022-09-17T14:02:04.429Z,0.95
2022-09-17T14:04:33.863Z,2.38
2022-09-17T14:07:00.516Z,5.47
2022-09-17T14:09:31.245Z,5.78
2022-09-17T14:11:57.510Z,3.40
2022-09-17T14:14:26.563Z,2.15
2022-09-17T14:16:52.830Z,5.35
2022-09-17T14:19:25.283Z,3.92
2022-09-17T14:21:59.506Z,4.50
2022-09-17T14:24:34.793Z,1.35
2022-09-17T14:27:10.379Z,8.60
2022-09-17T14:29:51.670Z,3.28
2022-09-17T14:32:20.905Z,7.65
2022-09-17T14:34:47.759Z,2.08
2022-09-17T14:37:16.767Z,3.90
2022-09-17T14:39:43.113Z,7.25
2022-09-17T14:42:15.018Z,2.83
2022-09-17T14:44:49.759Z,1.08
2022-09-17T14:47:18.565Z,5.90
2022-09-17T14:49:46.777Z,1.88
2022-09-17T14:52:25.003Z,4.75
2022-09-17T14:55:09.610Z,3.00
2022-09-17T14:57:36.897Z,5.82
2022-09-17T15:00:07.700Z,2.65
2022-09-17T15:02:41.202Z,8.13
2022-09-17T15:05:43.275Z,2.35
2022-09-17T15:08:09.797Z,5.05
2022-09-17T15:10:37.569Z,1.58
2022-09-17T15:13:07.711Z,2.65
2022-09-17T15:15:34.949Z,3.55
2022-09-17T15:18:01.210Z,2.53
2022-09-17T15:20:33.564Z,7.28
2022-09-17T15:23:08.950Z,2.63
2022-09-17T15:25:36.414Z,2.85
2022-09-17T15:28:06.403Z,1.85
2022-09-17T15:33:00.211Z,2.08
2022-09-17T15:35:29.978Z,3.90
2022-09-17T15:38:21.698Z,3.13
2022-09-17T15:40:43.903Z,1.83
2022-09-17T15:43:19.395Z,1.40
2022-09-17T15:45:46.210Z,5.07
2022-09-17T15:48:27.698Z,3.78
2022-09-17T15:50:55.042Z,2.90
2022-09-17T15:53:23.249Z,3.30
2022-09-17T15:55:58.807Z,5.38
2022-09-17T15:58:33.095Z,1.42
2022-09-17T16:01:11.664Z,1.90
2022-09-17T16:03:40.709Z,3.35
2022-09-17T16:06:19.313Z,5.50
2022-09-17T16:08:49.173Z,3.80
2022-09-17T16:13:41.631Z,4.53
2022-09-17T16:16:14.044Z,2.67
2022-09-17T16:18:40.361Z,6.05
2022-09-17T16:21:07.874Z,6.32
2022-09-17T16:23:34.227Z,8.95
2022-09-17T16:26:00.513Z,4.38
2022-09-17T16:28:26.778Z,2.95
2022-09-17T16:30:53.145Z,4.40
2022-09-17T16:33:19.904Z,6.80
2022-09-17T16:35:46.307Z,4.10
2022-09-17T16:38:13.042Z,5.65
2022-09-17T16:40:40.244Z,7.35
2022-09-17T16:43:06.609Z,7.22
2022-09-17T16:45:32.875Z,2.50
2022-09-17T16:47:59.163Z,8.35
2022-09-17T16:50:25.497Z,4.68
2022-09-17T16:52:52.323Z,2.35
2022-09-17T16:55:18.626Z,8.25
2022-09-17T16:57:45.135Z,8.27
2022-09-17T17:00:13.826Z,5.57
2022-09-17T17:02:40.139Z,7.90
2022-09-17T17:05:06.646Z,5.07
2022-09-17T17:07:34.545Z,10.98
2022-09-17T17:10:00.840Z,10.35
2022-09-17T17:12:27.199Z,4.78
2022-09-17T17:14:53.673Z,7.53
2022-09-17T17:17:20.728Z,13.07
2022-09-17T17:19:47.108Z,6.90
2022-09-17T17:22:13.983Z,4.93
2022-09-17T17:24:40.295Z,3.78
2022-09-17T17:27:08.793Z,6.68
2022-09-17T17:29:35.501Z,5.95
2022-09-17T17:32:04.965Z,2.63
2022-09-17T17:34:31.623Z,4.25
2022-09-17T17:36:58.266Z,7.60
2022-09-17T17:39:24.760Z,3.40
2022-09-17T17:41:51.857Z,3.85
2022-09-17T17:44:18.297Z,4.57
2022-09-17T17:46:44.583Z,4.65
2022-09-17T17:49:10.927Z,4.68
2022-09-17T17:51:37.173Z,3.20
2022-09-17T17:54:03.797Z,8.65
2022-09-17T17:56:30.044Z,6.07
2022-09-17T17:58:57.734Z,7.70
2022-09-17T18:01:25.659Z,5.28
2022-09-17T18:04:02.051Z,4.03
2022-09-17T18:06:28.887Z,4.40
2022-09-17T18:08:55.278Z,7.78
2022-09-17T18:11:21.943Z,6.75
2022-09-17T18:13:51.715Z,7.25
2022-09-17T18:16:18.136Z,13.38
2022-09-17T18:18:45.424Z,7.22
2022-09-17T18:21:12.897Z,7.50
2022-09-17T18:23:40.149Z,5.60
2022-09-17T18:26:08.079Z,2.97
2022-09-17T18:28:35.392Z,6.43
2022-09-17T18:31:05.602Z,10.30
2022-09-17T18:33:32.306Z,9.63
2022-09-17T18:36:00.864Z,9.75
2022-09-17T18:38:27.127Z,8.70
2022-09-17T18:40:53.377Z,8.98
2022-09-17T18:43:19.657Z,10.00
2022-09-17T18:45:55.923Z,7.50
2022-09-17T18:48:23.089Z,14.57
2022-09-17T18:51:18.714Z,7.72
2022-09-17T18:53:49.499Z,6.10
2022-09-17T18:56:19.141Z,5.82
2022-09-17T18:58:45.968Z,11.13
2022-09-17T19:01:12.588Z,11.07
2022-09-17T19:03:38.914Z,10.57
2022-09-17T19:06:06.761Z,8.43
2022-09-17T19:08:33.143Z,6.43
2022-09-17T19:10:59.406Z,4.47
2022-09-17T19:13:26.456Z,10.40
2022-09-17T19:15:57.259Z,9.35
2022-09-17T19:18:23.551Z,9.38
2022-09-17T19:20:49.812Z,7.45
2022-09-17T19:23:16.057Z,5.53
2022-09-17T19:25:42.318Z,2.22
2022-09-17T19:28:08.661Z,7.63
2022-09-17T19:30:35.081Z,5.28
2022-09-17T19:33:01.363Z,10.27
2022-09-17T19:35:27.803Z,12.82
2022-09-17T19:37:57.545Z,6.30
2022-09-17T19:40:23.891Z,14.25
2022-09-17T19:42:54.024Z,7.55
2022-09-17T19:45:23.747Z,4.18
2022-09-17T19:47:51.225Z,11.68
2022-09-17T19:50:23.502Z,12.50
2022-09-17T19:52:49.786Z,9.75
2022-09-17T19:55:16.050Z,5.25
2022-09-17T19:57:51.471Z,3.78
2022-09-17T20:00:17.756Z,13.98
2022-09-17T20:02:44.099Z,9.02
2022-09-17T20:05:10.403Z,16.15
2022-09-17T20:07:36.674Z,9.15
2022-09-17T20:10:02.976Z,6.30
2022-09-17T20:12:29.226Z,10.70
2022-09-17T20:14:55.508Z,9.98
2022-09-17T20:17:21.787Z,4.30
2022-09-17T20:19:48.052Z,8.90
2022-09-17T20:22:14.299Z,11.13
2022-09-17T20:24:40.750Z,6.20
2022-09-17T20:27:06.997Z,7.00
2022-09-17T20:29:33.301Z,7.15
2022-09-17T20:31:59.583Z,10.05
2022-09-17T20:34:25.847Z,7.63
2022-09-17T20:37:06.493Z,10.98
2022-09-17T20:39:38.449Z,17.17
2022-09-17T20:42:04.907Z,14.48
2022-09-17T20:44:31.169Z,15.50
2022-09-17T20:46:57.845Z,8.45
2022-09-17T20:49:24.217Z,7.55
2022-09-17T20:51:51.612Z,4.75
2022-09-17T20:54:17.877Z,7.85
2022-09-17T20:56:44.593Z,7.68
2022-09-17T20:59:17.776Z,6.47
2022-09-17T21:01:45.777Z,8.18
2022-09-17T21:04:14.101Z,5.30
2022-09-17T21:06:41.305Z,8.25
2022-09-17T21:09:10.269Z,8.15
2022-09-17T21:11:36.549Z,7.57
2022-09-17T21:14:02.848Z,6.15
2022-09-17T21:16:29.510Z,3.92
2022-09-17T21:18:57.492Z,19.55
2022-09-17T21:21:24.115Z,6.03
2022-09-17T21:23:51.037Z,9.05
2022-09-17T21:26:18.977Z,5.97
2022-09-17T21:28:46.088Z,11.20
2022-09-17T21:31:14.027Z,4.97
2022-09-17T21:33:41.022Z,7.95
2022-09-17T21:36:11.582Z,6.32
2022-09-17T21:38:38.174Z,4.28
2022-09-17T21:41:06.795Z,8.48
2022-09-17T21:43:34.271Z,9.20
2022-09-17T21:46:01.875Z,5.65
2022-09-17T21:48:29.078Z,7.00
2022-09-17T21:51:00.946Z,20.58
2022-09-17T21:53:27.177Z,10.98
2022-09-17T21:55:53.478Z,15.05
2022-09-17T21:58:19.724Z,6.45
2022-09-17T22:00:49.443Z,11.20
2022-09-17T22:03:16.918Z,16.83
2022-09-17T22:05:43.238Z,8.13
2022-09-17T22:08:09.482Z,12.10
2022-09-17T22:10:35.743Z,2.97
2022-09-17T22:13:01.995Z,13.50
2022-09-17T22:15:28.277Z,6.22
2022-09-17T22:17:54.567Z,17.08
2022-09-17T22:20:21.539Z,5.30
2022-09-17T22:22:48.227Z,6.55
2022-09-17T22:25:14.521Z,9.63
2022-09-17T22:27:40.812Z,1.90
2022-09-17T22:30:07.261Z,5.70
2022-09-17T22:32:33.519Z,7.78
2022-09-17T22:34:59.781Z,7.78
2022-09-17T22:37:28.684Z,10.07
2022-09-17T22:39:55.039Z,11.45
2022-09-17T22:42:21.349Z,10.43
2022-09-17T22:44:47.605Z,13.07
2022-09-17T22:47:13.858Z,6.82
2022-09-17T22:49:40.124Z,5.43
2022-09-17T22:52:06.359Z,17.77
2022-09-17T22:54:33.010Z,4.30
2022-09-17T22:56:59.358Z,7.55
2022-09-17T22:59:25.711Z,7.47
2022-09-17T23:01:52.090Z,5.10
2022-09-17T23:04:18.405Z,4.95
2022-09-17T23:06:44.686Z,11.50
2022-09-17T23:09:11.781Z,17.13
2022-09-17T23:11:38.730Z,7.38
2022-09-17T23:14:07.967Z,10.65
2022-09-17T23:16:35.313Z,6.80
2022-09-17T23:19:01.597Z,15.50
2022-09-17T23:21:27.843Z,7.05
2022-09-17T23:23:54.179Z,8.52
2022-09-17T23:26:22.027Z,7.80
2022-09-17T23:28:48.810Z,7.45
2022-09-17T23:31:16.212Z,5.15
2022-09-17T23:33:42.898Z,7.82
2022-09-17T23:36:12.698Z,7.57
2022-09-17T23:38:39.270Z,11.30
2022-09-17T23:41:14.607Z,7.80
2022-09-17T23:43:45.562Z,6.53
2022-09-17T23:46:12.189Z,7.45
2022-09-17T23:48:38.499Z,6.97
2022-09-17T23:51:05.287Z,10.57
2022-09-17T23:53:32.168Z,8.15
2022-09-17T23:56:00.266Z,7.25
2022-09-17T23:58:29.088Z,8.63
